Check out our new PWSWeather beta!
PWSweather.com
Personal Weather Stations
Station Observations

PoschiavoCH

Lat: 46.31962499999999, Lon: 10.066551000000004

Elevation: 3517

Station Type: WH 1080

http://www.meteoposchiavo.com

High Low Average
Temperature 49.0°F9.4°C 32.0°F0.0°C 40.0°F4.4°C
Dew Point 37.0°F2.8°C 13.8°F-10.1°C 20.4°F-6.4°C
Winds 8.1 mph 13.0 kmh Calm Calm 3.0 mph SE4.8 kmh SE
Wind Gusts 12.7 mph20.4 kmh -- 5.0 mph8.0 kmh
Humidity 89% 31% 47%
Pressure 26.41 in894.3 mb 26.13 in884.9 mb -
Precipitation 0.00 in0.0 mm - -
Hour Temp Dew Point Humidity Winds Wind Gusts Pressure Precip Precip Rate Daily Precip Total
12:00 AM 40.0°F4.4°C 37.0°F2.8°C 89% Calm Calm -- 26.13 in884.9 mb - 0.00 in0.0 mm 0.00 in0.0 mm
12:10 AM 40.0°F4.4°C 30.6°F-0.8°C 69% 1.2 mph NNW1.9 kmh NNW 2.3 mph3.7 kmh 26.13 in884.9 mb - 0.00 in0.0 mm 0.00 in0.0 mm
12:15 AM 41.0°F5.0°C 33.0°F0.6°C 73% 1.2 mph WNW1.9 kmh WNW 1.2 mph1.9 kmh 26.13 in884.9 mb - 0.00 in0.0 mm 0.00 in0.0 mm
12:20 AM 41.0°F5.0°C 33.7°F0.9°C 75% 1.2 mph NW1.9 kmh NW 1.2 mph1.9 kmh 26.13 in884.9 mb - 0.00 in0.0 mm 0.00 in0.0 mm
12:25 AM 40.0°F4.4°C 32.4°F0.2°C 74% Calm Calm -- 26.14 in885.2 mb - 0.00 in0.0 mm 0.00 in0.0 mm
12:30 AM 41.0°F5.0°C 32.0°F0.0°C 70% 2.3 mph NE3.7 kmh NE 2.3 mph3.7 kmh 26.14 in885.2 mb - 0.00 in0.0 mm 0.00 in0.0 mm
12:35 AM 41.0°F5.0°C 30.9°F-0.6°C 67% Calm Calm 2.3 mph3.7 kmh 26.15 in885.5 mb - 0.00 in0.0 mm 0.00 in0.0 mm
12:40 AM 41.0°F5.0°C 31.2°F-0.4°C 68% Calm Calm 3.5 mph5.6 kmh 26.15 in885.5 mb - 0.00 in0.0 mm 0.00 in0.0 mm
12:45 AM 41.0°F5.0°C 30.9°F-0.6°C 67% 2.3 mph NW3.7 kmh NW 3.5 mph5.6 kmh 26.15 in885.5 mb - 0.00 in0.0 mm 0.00 in0.0 mm
12:50 AM 41.0°F5.0°C 29.7°F-1.3°C 64% Calm Calm 1.2 mph1.9 kmh 26.14 in885.2 mb - 0.00 in0.0 mm 0.00 in0.0 mm
12:55 AM 41.0°F5.0°C 30.1°F-1.1°C 65% 2.3 mph NNE3.7 kmh NNE 3.5 mph5.6 kmh 26.15 in885.5 mb - 0.00 in0.0 mm 0.00 in0.0 mm
01:00 AM 41.0°F5.0°C 30.9°F-0.6°C 67% Calm Calm -- 26.15 in885.5 mb - 0.00 in0.0 mm 0.00 in0.0 mm
01:10 AM 41.0°F5.0°C 29.7°F-1.3°C 64% 1.2 mph NW1.9 kmh NW 3.5 mph5.6 kmh 26.16 in885.9 mb - 0.00 in0.0 mm 0.00 in0.0 mm
01:15 AM 40.0°F4.4°C 28.8°F-1.8°C 64% 1.2 mph WNW1.9 kmh WNW 2.3 mph3.7 kmh 26.16 in885.9 mb - 0.00 in0.0 mm 0.00 in0.0 mm
01:20 AM 40.0°F4.4°C 28.8°F-1.8°C 64% Calm Calm 1.2 mph1.9 kmh 26.16 in885.9 mb - 0.00 in0.0 mm 0.00 in0.0 mm
01:25 AM 40.0°F4.4°C 29.2°F-1.6°C 65% Calm Calm 1.2 mph1.9 kmh 26.17 in886.2 mb - 0.00 in0.0 mm 0.00 in0.0 mm
01:30 AM 40.0°F4.4°C 29.2°F-1.6°C 65% Calm Calm -- 26.16 in885.9 mb - 0.00 in0.0 mm 0.00 in0.0 mm
01:35 AM 40.0°F4.4°C 26.8°F-2.9°C 59% 2.3 mph NE3.7 kmh NE 3.5 mph5.6 kmh 26.17 in886.2 mb - 0.00 in0.0 mm 0.00 in0.0 mm
01:40 AM 39.0°F3.9°C 26.3°F-3.2°C 60% 2.3 mph NNE3.7 kmh NNE 2.3 mph3.7 kmh 26.17 in886.2 mb - 0.00 in0.0 mm 0.00 in0.0 mm
01:45 AM 39.0°F3.9°C 25.5°F-3.6°C 58% 1.2 mph N1.9 kmh N 2.3 mph3.7 kmh 26.17 in886.2 mb - 0.00 in0.0 mm 0.00 in0.0 mm
01:50 AM 39.0°F3.9°C 24.6°F-4.1°C 56% 1.2 mph W1.9 kmh W 2.3 mph3.7 kmh 26.17 in886.2 mb - 0.00 in0.0 mm 0.00 in0.0 mm
01:55 AM 39.0°F3.9°C 25.9°F-3.4°C 59% 3.5 mph W5.6 kmh W 5.8 mph9.3 kmh 26.17 in886.2 mb - 0.00 in0.0 mm 0.00 in0.0 mm
02:00 AM 39.0°F3.9°C 24.2°F-4.3°C 55% 1.2 mph NE1.9 kmh NE 3.5 mph5.6 kmh 26.17 in886.2 mb - 0.00 in0.0 mm 0.00 in0.0 mm
02:10 AM 39.0°F3.9°C 23.7°F-4.6°C 54% 2.3 mph W3.7 kmh W 3.5 mph5.6 kmh 26.18 in886.6 mb - 0.00 in0.0 mm 0.00 in0.0 mm
02:15 AM 39.0°F3.9°C 24.2°F-4.3°C 55% 2.3 mph NE3.7 kmh NE 3.5 mph5.6 kmh 26.17 in886.2 mb - 0.00 in0.0 mm 0.00 in0.0 mm
02:20 AM 39.0°F3.9°C 24.2°F-4.3°C 55% 2.3 mph NE3.7 kmh NE 3.5 mph5.6 kmh 26.17 in886.2 mb - 0.00 in0.0 mm 0.00 in0.0 mm
02:25 AM 39.0°F3.9°C 24.2°F-4.3°C 55% 2.3 mph NE3.7 kmh NE 3.5 mph5.6 kmh 26.18 in886.6 mb - 0.00 in0.0 mm 0.00 in0.0 mm
02:30 AM 39.0°F3.9°C 22.8°F-5.1°C 52% 3.5 mph NE5.6 kmh NE 5.8 mph9.3 kmh 26.18 in886.6 mb - 0.00 in0.0 mm 0.00 in0.0 mm
02:35 AM 39.0°F3.9°C 23.7°F-4.6°C 54% 3.5 mph SW5.6 kmh SW 5.8 mph9.3 kmh 26.18 in886.6 mb - 0.00 in0.0 mm 0.00 in0.0 mm
02:40 AM 38.0°F3.3°C 22.4°F-5.3°C 53% 2.3 mph ESE3.7 kmh ESE 3.5 mph5.6 kmh 26.18 in886.6 mb - 0.00 in0.0 mm 0.00 in0.0 mm
02:45 AM 38.0°F3.3°C 22.4°F-5.3°C 53% 5.8 mph SSW9.3 kmh SSW 9.2 mph14.8 kmh 26.19 in886.9 mb - 0.00 in0.0 mm 0.00 in0.0 mm
02:50 AM 38.0°F3.3°C 22.4°F-5.3°C 53% 4.6 mph S7.4 kmh S 9.2 mph14.8 kmh 26.19 in886.9 mb - 0.00 in0.0 mm 0.00 in0.0 mm
02:55 AM 38.0°F3.3°C 22.4°F-5.3°C 53% 3.5 mph S5.6 kmh S 5.8 mph9.3 kmh 26.19 in886.9 mb - 0.00 in0.0 mm 0.00 in0.0 mm
03:00 AM 38.0°F3.3°C 22.4°F-5.3°C 53% 2.3 mph NW3.7 kmh NW 3.5 mph5.6 kmh 26.18 in886.6 mb - 0.00 in0.0 mm 0.00 in0.0 mm
03:10 AM 38.0°F3.3°C 22.4°F-5.3°C 53% 3.5 mph S5.6 kmh S 6.9 mph11.1 kmh 26.19 in886.9 mb - 0.00 in0.0 mm 0.00 in0.0 mm
03:15 AM 38.0°F3.3°C 21.9°F-5.6°C 52% 3.5 mph SSW5.6 kmh SSW 6.9 mph11.1 kmh 26.19 in886.9 mb - 0.00 in0.0 mm 0.00 in0.0 mm
03:20 AM 38.0°F3.3°C 21.9°F-5.6°C 52% 3.5 mph SSE5.6 kmh SSE 5.8 mph9.3 kmh 26.19 in886.9 mb - 0.00 in0.0 mm 0.00 in0.0 mm
03:25 AM 38.0°F3.3°C 22.4°F-5.3°C 53% 4.6 mph SSE7.4 kmh SSE 9.2 mph14.8 kmh 26.19 in886.9 mb - 0.00 in0.0 mm 0.00 in0.0 mm
03:30 AM 38.0°F3.3°C 22.8°F-5.1°C 54% 6.9 mph SSE11.1 kmh SSE 9.2 mph14.8 kmh 26.19 in886.9 mb - 0.00 in0.0 mm 0.00 in0.0 mm
03:35 AM 38.0°F3.3°C 22.8°F-5.1°C 54% 3.5 mph NE5.6 kmh NE 3.5 mph5.6 kmh 26.19 in886.9 mb - 0.00 in0.0 mm 0.00 in0.0 mm
03:40 AM 38.0°F3.3°C 22.4°F-5.3°C 53% 3.5 mph ENE5.6 kmh ENE 5.8 mph9.3 kmh 26.18 in886.6 mb - 0.00 in0.0 mm 0.00 in0.0 mm
03:45 AM 38.0°F3.3°C 21.9°F-5.6°C 52% 3.5 mph SE5.6 kmh SE 3.5 mph5.6 kmh 26.18 in886.6 mb - 0.00 in0.0 mm 0.00 in0.0 mm
03:50 AM 37.0°F2.8°C 21.4°F-5.9°C 53% 1.2 mph NW1.9 kmh NW 1.2 mph1.9 kmh 26.18 in886.6 mb - 0.00 in0.0 mm 0.00 in0.0 mm
03:55 AM 37.0°F2.8°C 20.1°F-6.6°C 50% 2.3 mph NW3.7 kmh NW 3.5 mph5.6 kmh 26.18 in886.6 mb - 0.00 in0.0 mm 0.00 in0.0 mm
04:00 AM 37.9°F3.3°C 20.9°F-6.2°C 50% 2.3 mph NW3.7 kmh NW 5.8 mph9.3 kmh 26.18 in886.6 mb - 0.00 in0.0 mm 0.00 in0.0 mm
04:10 AM 38.0°F3.3°C 22.4°F-5.3°C 53% 2.3 mph SW3.7 kmh SW 3.5 mph5.6 kmh 26.18 in886.6 mb - 0.00 in0.0 mm 0.00 in0.0 mm
04:15 AM 37.0°F2.8°C 21.4°F-5.9°C 53% 4.6 mph SE7.4 kmh SE 8.1 mph13.0 kmh 26.20 in887.2 mb - 0.00 in0.0 mm 0.00 in0.0 mm
04:20 AM 37.0°F2.8°C 21.9°F-5.6°C 54% 3.5 mph W5.6 kmh W 3.5 mph5.6 kmh 26.19 in886.9 mb - 0.00 in0.0 mm 0.00 in0.0 mm
04:25 AM 37.0°F2.8°C 23.2°F-4.9°C 57% 4.6 mph NE7.4 kmh NE 8.1 mph13.0 kmh 26.20 in887.2 mb - 0.00 in0.0 mm 0.00 in0.0 mm
04:30 AM 36.4°F2.4°C 22.2°F-5.4°C 56% 4.6 mph E7.4 kmh E 8.1 mph13.0 kmh 26.20 in887.2 mb - 0.00 in0.0 mm 0.00 in0.0 mm
04:35 AM 36.0°F2.2°C 21.8°F-5.7°C 56% 4.6 mph SE7.4 kmh SE 6.9 mph11.1 kmh 26.20 in887.2 mb - 0.00 in0.0 mm 0.00 in0.0 mm
04:40 AM 36.0°F2.2°C 22.2°F-5.4°C 57% 2.3 mph SSW3.7 kmh SSW 3.5 mph5.6 kmh 26.21 in887.6 mb - 0.00 in0.0 mm 0.00 in0.0 mm
04:45 AM 36.0°F2.2°C 22.6°F-5.2°C 58% 3.5 mph SW5.6 kmh SW 5.8 mph9.3 kmh 26.22 in887.9 mb - 0.00 in0.0 mm 0.00 in0.0 mm
04:50 AM 36.0°F2.2°C 23.4°F-4.8°C 60% 2.3 mph W3.7 kmh W 3.5 mph5.6 kmh 26.21 in887.6 mb - 0.00 in0.0 mm 0.00 in0.0 mm
04:55 AM 35.0°F1.7°C 22.9°F-5.1°C 61% 2.3 mph SW3.7 kmh SW 3.5 mph5.6 kmh 26.23 in888.3 mb - 0.00 in0.0 mm 0.00 in0.0 mm
05:00 AM 35.0°F1.7°C 23.3°F-4.8°C 62% 3.5 mph WSW5.6 kmh WSW 5.8 mph9.3 kmh 26.23 in888.3 mb - 0.00 in0.0 mm 0.00 in0.0 mm
05:10 AM 35.0°F1.7°C 22.5°F-5.3°C 60% 4.6 mph NE7.4 kmh NE 6.9 mph11.1 kmh 26.23 in888.3 mb - 0.00 in0.0 mm 0.00 in0.0 mm
05:15 AM 35.0°F1.7°C 22.9°F-5.1°C 61% 1.2 mph ESE1.9 kmh ESE 2.3 mph3.7 kmh 26.22 in887.9 mb - 0.00 in0.0 mm 0.00 in0.0 mm
05:20 AM 35.0°F1.7°C 23.3°F-4.8°C 62% 4.6 mph SW7.4 kmh SW 8.1 mph13.0 kmh 26.23 in888.3 mb - 0.00 in0.0 mm 0.00 in0.0 mm
05:25 AM 35.0°F1.7°C 22.5°F-5.3°C 60% 5.8 mph S9.3 kmh S 8.1 mph13.0 kmh 26.23 in888.3 mb - 0.00 in0.0 mm 0.00 in0.0 mm
05:30 AM 35.0°F1.7°C 22.9°F-5.1°C 61% 3.5 mph SSW5.6 kmh SSW 8.1 mph13.0 kmh 26.23 in888.3 mb - 0.00 in0.0 mm 0.00 in0.0 mm
05:35 AM 35.0°F1.7°C 23.3°F-4.8°C 62% 1.2 mph NW1.9 kmh NW 2.3 mph3.7 kmh 26.23 in888.3 mb - 0.00 in0.0 mm 0.00 in0.0 mm
05:40 AM 35.0°F1.7°C 22.5°F-5.3°C 60% 8.1 mph SSW13.0 kmh SSW 12.7 mph20.4 kmh 26.25 in888.9 mb - 0.00 in0.0 mm 0.00 in0.0 mm
05:45 AM 34.0°F1.1°C 22.7°F-5.2°C 63% 3.5 mph SW5.6 kmh SW 5.8 mph9.3 kmh 26.25 in888.9 mb - 0.00 in0.0 mm 0.00 in0.0 mm
05:50 AM 34.0°F1.1°C 23.5°F-4.7°C 65% 4.6 mph SSW7.4 kmh SSW 8.1 mph13.0 kmh 26.26 in889.3 mb - 0.00 in0.0 mm 0.00 in0.0 mm
05:55 AM 34.0°F1.1°C 23.8°F-4.6°C 66% 2.3 mph NNW3.7 kmh NNW 3.5 mph5.6 kmh 26.26 in889.3 mb - 0.00 in0.0 mm 0.00 in0.0 mm
06:00 AM 34.0°F1.1°C 24.2°F-4.3°C 67% 1.2 mph NNW1.9 kmh NNW 3.5 mph5.6 kmh 26.26 in889.3 mb - 0.00 in0.0 mm 0.00 in0.0 mm
06:10 AM 33.0°F0.6°C 23.9°F-4.5°C 69% 3.5 mph NW5.6 kmh NW 3.5 mph5.6 kmh 26.27 in889.6 mb - 0.00 in0.0 mm 0.00 in0.0 mm
06:15 AM 33.0°F0.6°C 24.6°F-4.1°C 71% 1.2 mph NNW1.9 kmh NNW 2.3 mph3.7 kmh 26.28 in889.9 mb - 0.00 in0.0 mm 0.00 in0.0 mm
06:20 AM 33.0°F0.6°C 25.0°F-3.9°C 72% 3.5 mph N5.6 kmh N 6.9 mph11.1 kmh 26.28 in889.9 mb - 0.00 in0.0 mm 0.00 in0.0 mm
06:25 AM 33.0°F0.6°C 25.0°F-3.9°C 72% 2.3 mph NW3.7 kmh NW 5.8 mph9.3 kmh 26.28 in889.9 mb - 0.00 in0.0 mm 0.00 in0.0 mm
06:30 AM 32.6°F0.3°C 24.5°F-4.2°C 72% 2.3 mph NNW3.7 kmh NNW 5.8 mph9.3 kmh 26.28 in889.9 mb - 0.00 in0.0 mm 0.00 in0.0 mm
06:35 AM 32.0°F0.0°C 24.3°F-4.3°C 73% 2.3 mph N3.7 kmh N 3.5 mph5.6 kmh 26.29 in890.3 mb - 0.00 in0.0 mm 0.00 in0.0 mm
06:40 AM 33.0°F0.6°C 23.9°F-4.5°C 69% 4.6 mph N7.4 kmh N 8.1 mph13.0 kmh 26.28 in889.9 mb - 0.00 in0.0 mm 0.00 in0.0 mm
06:45 AM 33.0°F0.6°C 24.3°F-4.3°C 70% 3.5 mph N5.6 kmh N 6.9 mph11.1 kmh 26.29 in890.3 mb - 0.00 in0.0 mm 0.00 in0.0 mm
06:50 AM 33.0°F0.6°C 22.5°F-5.3°C 65% 2.3 mph N3.7 kmh N 3.5 mph5.6 kmh 26.30 in890.6 mb - 0.00 in0.0 mm 0.00 in0.0 mm
06:55 AM 33.0°F0.6°C 22.9°F-5.1°C 66% Calm Calm -- 26.29 in890.3 mb - 0.00 in0.0 mm 0.00 in0.0 mm
07:00 AM 33.4°F0.8°C 22.9°F-5.1°C 65% 1.2 mph N1.9 kmh N 8.1 mph13.0 kmh 26.30 in890.6 mb - 0.00 in0.0 mm 0.00 in0.0 mm
07:10 AM 34.0°F1.1°C 24.2°F-4.3°C 67% Calm Calm -- 26.30 in890.6 mb - 0.00 in0.0 mm 0.00 in0.0 mm
07:15 AM 33.0°F0.6°C 21.8°F-5.7°C 63% 4.6 mph N7.4 kmh N 8.1 mph13.0 kmh 26.29 in890.3 mb - 0.00 in0.0 mm 0.00 in0.0 mm
07:20 AM 34.0°F1.1°C 22.7°F-5.2°C 63% 4.6 mph N7.4 kmh N 5.8 mph9.3 kmh 26.29 in890.3 mb - 0.00 in0.0 mm 0.00 in0.0 mm
07:25 AM 34.0°F1.1°C 22.3°F-5.4°C 62% 3.5 mph N5.6 kmh N 3.5 mph5.6 kmh 26.29 in890.3 mb - 0.00 in0.0 mm 0.00 in0.0 mm
07:30 AM 34.0°F1.1°C 22.0°F-5.6°C 61% 3.5 mph N5.6 kmh N 3.5 mph5.6 kmh 26.29 in890.3 mb - 0.00 in0.0 mm 0.00 in0.0 mm
07:35 AM 34.0°F1.1°C 21.2°F-6.0°C 59% 3.5 mph N5.6 kmh N 3.5 mph5.6 kmh 26.28 in889.9 mb - 0.00 in0.0 mm 0.00 in0.0 mm
07:40 AM 35.0°F1.7°C 22.1°F-5.5°C 59% Calm Calm 1.2 mph1.9 kmh 26.30 in890.6 mb - 0.00 in0.0 mm 0.00 in0.0 mm
07:45 AM 35.0°F1.7°C 21.7°F-5.7°C 58% 3.5 mph 5.6 kmh 3.5 mph5.6 kmh 26.28 in889.9 mb - 0.00 in0.0 mm 0.00 in0.0 mm
07:50 AM 35.0°F1.7°C 20.0°F-6.7°C 54% 3.5 mph N5.6 kmh N 9.2 mph14.8 kmh 26.28 in889.9 mb - 0.00 in0.0 mm 0.00 in0.0 mm
07:55 AM 35.0°F1.7°C 20.0°F-6.7°C 54% 3.5 mph N5.6 kmh N 9.2 mph14.8 kmh 26.28 in889.9 mb - 0.00 in0.0 mm 0.00 in0.0 mm
08:00 AM 35.0°F1.7°C 20.4°F-6.4°C 55% 2.3 mph N3.7 kmh N 3.5 mph5.6 kmh 26.29 in890.3 mb - 0.00 in0.0 mm 0.00 in0.0 mm
08:10 AM 36.0°F2.2°C 19.1°F-7.2°C 50% 2.3 mph N3.7 kmh N 3.5 mph5.6 kmh 26.29 in890.3 mb - 0.00 in0.0 mm 0.00 in0.0 mm
08:15 AM 36.0°F2.2°C 19.1°F-7.2°C 50% 2.3 mph N3.7 kmh N 3.5 mph5.6 kmh 26.29 in890.3 mb - 0.00 in0.0 mm 0.00 in0.0 mm
08:20 AM 36.0°F2.2°C 19.1°F-7.2°C 50% 2.3 mph N3.7 kmh N 2.3 mph3.7 kmh 26.29 in890.3 mb - 0.00 in0.0 mm 0.00 in0.0 mm
08:25 AM 36.0°F2.2°C 18.7°F-7.4°C 49% 2.3 mph N3.7 kmh N 2.3 mph3.7 kmh 26.27 in889.6 mb - 0.00 in0.0 mm 0.00 in0.0 mm
08:30 AM 37.0°F2.8°C 18.6°F-7.4°C 47% 3.5 mph N5.6 kmh N 5.8 mph9.3 kmh 26.27 in889.6 mb - 0.00 in0.0 mm 0.00 in0.0 mm
08:35 AM 37.0°F2.8°C 18.1°F-7.7°C 46% 2.3 mph N3.7 kmh N 3.5 mph5.6 kmh 26.27 in889.6 mb - 0.00 in0.0 mm 0.00 in0.0 mm
08:40 AM 37.0°F2.8°C 18.1°F-7.7°C 46% 2.3 mph N3.7 kmh N 3.5 mph5.6 kmh 26.28 in889.9 mb - 0.00 in0.0 mm 0.00 in0.0 mm
08:45 AM 37.0°F2.8°C 18.1°F-7.7°C 46% 3.5 mph NNW5.6 kmh NNW 3.5 mph5.6 kmh 26.28 in889.9 mb - 0.00 in0.0 mm 0.00 in0.0 mm
08:50 AM 37.0°F2.8°C 18.6°F-7.4°C 47% 2.3 mph N3.7 kmh N 3.5 mph5.6 kmh 26.28 in889.9 mb - 0.00 in0.0 mm 0.00 in0.0 mm
08:55 AM 37.0°F2.8°C 18.6°F-7.4°C 47% 1.2 mph N1.9 kmh N 2.3 mph3.7 kmh 26.29 in890.3 mb - 0.00 in0.0 mm 0.00 in0.0 mm
09:00 AM 37.0°F2.8°C 18.1°F-7.7°C 46% 3.5 mph N5.6 kmh N 5.8 mph9.3 kmh 26.29 in890.3 mb - 0.00 in0.0 mm 0.00 in0.0 mm
09:10 AM 36.0°F2.2°C 19.6°F-6.9°C 51% 2.3 mph N3.7 kmh N 2.3 mph3.7 kmh 26.30 in890.6 mb - 0.00 in0.0 mm 0.00 in0.0 mm
09:15 AM 36.0°F2.2°C 19.1°F-7.2°C 50% 2.3 mph NNW3.7 kmh NNW 3.5 mph5.6 kmh 26.31 in891.0 mb - 0.00 in0.0 mm 0.00 in0.0 mm
09:20 AM 36.0°F2.2°C 20.1°F-6.6°C 52% 2.3 mph N3.7 kmh N 3.5 mph5.6 kmh 26.30 in890.6 mb - 0.00 in0.0 mm 0.00 in0.0 mm
09:25 AM 36.0°F2.2°C 19.6°F-6.9°C 51% 3.5 mph N5.6 kmh N 9.2 mph14.8 kmh 26.31 in891.0 mb - 0.00 in0.0 mm 0.00 in0.0 mm
09:30 AM 36.0°F2.2°C 20.5°F-6.4°C 53% 1.2 mph N1.9 kmh N 9.2 mph14.8 kmh 26.31 in891.0 mb - 0.00 in0.0 mm 0.00 in0.0 mm
09:35 AM 36.0°F2.2°C 20.5°F-6.4°C 53% 1.2 mph N1.9 kmh N 2.3 mph3.7 kmh 26.31 in891.0 mb - 0.00 in0.0 mm 0.00 in0.0 mm
09:40 AM 36.0°F2.2°C 20.9°F-6.2°C 54% 4.6 mph N7.4 kmh N 5.8 mph9.3 kmh 26.31 in891.0 mb - 0.00 in0.0 mm 0.00 in0.0 mm
09:45 AM 36.0°F2.2°C 20.9°F-6.2°C 54% 4.6 mph N7.4 kmh N 11.5 mph18.5 kmh 26.31 in891.0 mb - 0.00 in0.0 mm 0.00 in0.0 mm
09:50 AM 36.0°F2.2°C 20.9°F-6.2°C 54% 2.3 mph N3.7 kmh N 2.3 mph3.7 kmh 26.31 in891.0 mb - 0.00 in0.0 mm 0.00 in0.0 mm
09:55 AM 36.8°F2.7°C 20.8°F-6.2°C 52% 4.6 mph N7.4 kmh N 6.9 mph11.1 kmh 26.31 in891.0 mb - 0.00 in0.0 mm 0.00 in0.0 mm
10:00 AM 37.0°F2.8°C 21.0°F-6.1°C 52% 4.6 mph N7.4 kmh N 6.9 mph11.1 kmh 26.31 in891.0 mb - 0.00 in0.0 mm 0.00 in0.0 mm
10:10 AM 38.0°F3.3°C 20.5°F-6.4°C 49% 3.5 mph N5.6 kmh N 5.8 mph9.3 kmh 26.30 in890.6 mb - 0.00 in0.0 mm 0.00 in0.0 mm
10:15 AM 38.0°F3.3°C 18.5°F-7.5°C 45% 5.8 mph N9.3 kmh N 8.1 mph13.0 kmh 26.29 in890.3 mb - 0.00 in0.0 mm 0.00 in0.0 mm
10:20 AM 38.9°F3.8°C 20.9°F-6.2°C 48% 2.3 mph N3.7 kmh N 8.1 mph13.0 kmh 26.30 in890.6 mb - 0.00 in0.0 mm 0.00 in0.0 mm
10:25 AM 39.0°F3.9°C 20.9°F-6.2°C 48% 2.3 mph N3.7 kmh N 2.3 mph3.7 kmh 26.30 in890.6 mb - 0.00 in0.0 mm 0.00 in0.0 mm
10:30 AM 38.0°F3.3°C 18.0°F-7.8°C 44% 3.5 mph N5.6 kmh N 5.8 mph9.3 kmh 26.30 in890.6 mb - 0.00 in0.0 mm 0.00 in0.0 mm
10:35 AM 38.0°F3.3°C 18.5°F-7.5°C 45% 3.5 mph N5.6 kmh N 3.5 mph5.6 kmh 26.31 in891.0 mb - 0.00 in0.0 mm 0.00 in0.0 mm
10:40 AM 38.0°F3.3°C 19.5°F-6.9°C 47% 2.3 mph N3.7 kmh N 3.5 mph5.6 kmh 26.31 in891.0 mb - 0.00 in0.0 mm 0.00 in0.0 mm
10:45 AM 38.0°F3.3°C 19.5°F-6.9°C 47% 4.6 mph N7.4 kmh N 9.2 mph14.8 kmh 26.32 in891.3 mb - 0.00 in0.0 mm 0.00 in0.0 mm
10:50 AM 38.0°F3.3°C 19.5°F-6.9°C 47% 4.6 mph N7.4 kmh N 9.2 mph14.8 kmh 26.32 in891.3 mb - 0.00 in0.0 mm 0.00 in0.0 mm
10:55 AM 39.0°F3.9°C 20.5°F-6.4°C 47% 2.3 mph N3.7 kmh N 3.5 mph5.6 kmh 26.30 in890.6 mb - 0.00 in0.0 mm 0.00 in0.0 mm
11:00 AM 39.0°F3.9°C 21.4°F-5.9°C 49% 2.3 mph N3.7 kmh N 2.3 mph3.7 kmh 26.29 in890.3 mb - 0.00 in0.0 mm 0.00 in0.0 mm
11:10 AM 39.0°F3.9°C 20.5°F-6.4°C 47% 3.5 mph N5.6 kmh N 3.5 mph5.6 kmh 26.31 in891.0 mb - 0.00 in0.0 mm 0.00 in0.0 mm
11:15 AM 39.0°F3.9°C 20.5°F-6.4°C 47% 3.5 mph N5.6 kmh N 3.5 mph5.6 kmh 26.31 in891.0 mb - 0.00 in0.0 mm 0.00 in0.0 mm
11:20 AM 39.0°F3.9°C 19.9°F-6.7°C 46% 2.3 mph N3.7 kmh N 3.5 mph5.6 kmh 26.30 in890.6 mb - 0.00 in0.0 mm 0.00 in0.0 mm
11:25 AM 41.0°F5.0°C 19.6°F-6.9°C 42% 3.5 mph NNE5.6 kmh NNE 5.8 mph9.3 kmh 26.31 in891.0 mb - 0.00 in0.0 mm 0.00 in0.0 mm
11:30 AM 41.0°F5.0°C 20.7°F-6.3°C 44% 1.2 mph N1.9 kmh N 3.5 mph5.6 kmh 26.30 in890.6 mb - 0.00 in0.0 mm 0.00 in0.0 mm
11:35 AM 41.0°F5.0°C 20.2°F-6.6°C 43% 5.8 mph N9.3 kmh N 9.2 mph14.8 kmh 26.31 in891.0 mb - 0.00 in0.0 mm 0.00 in0.0 mm
11:40 AM 41.0°F5.0°C 20.2°F-6.6°C 43% 5.8 mph N9.3 kmh N 9.2 mph14.8 kmh 26.31 in891.0 mb - 0.00 in0.0 mm 0.00 in0.0 mm
11:45 AM 40.0°F4.4°C 19.3°F-7.1°C 43% 3.5 mph N5.6 kmh N 5.8 mph9.3 kmh 26.31 in891.0 mb - 0.00 in0.0 mm 0.00 in0.0 mm
11:50 AM 41.0°F5.0°C 20.7°F-6.3°C 44% 2.3 mph N3.7 kmh N 3.5 mph5.6 kmh 26.30 in890.6 mb - 0.00 in0.0 mm 0.00 in0.0 mm
11:55 AM 41.0°F5.0°C 20.7°F-6.3°C 44% 3.5 mph N5.6 kmh N 3.5 mph5.6 kmh 26.30 in890.6 mb - 0.00 in0.0 mm 0.00 in0.0 mm
12:00 PM 41.0°F5.0°C 20.7°F-6.3°C 44% 3.5 mph N5.6 kmh N 8.1 mph13.0 kmh 26.29 in890.3 mb - 0.00 in0.0 mm 0.00 in0.0 mm
12:10 PM 42.0°F5.6°C 20.0°F-6.7°C 41% 3.5 mph N5.6 kmh N 6.9 mph11.1 kmh 26.29 in890.3 mb - 0.00 in0.0 mm 0.00 in0.0 mm
12:15 PM 42.0°F5.6°C 20.0°F-6.7°C 41% 1.2 mph N1.9 kmh N 2.3 mph3.7 kmh 26.29 in890.3 mb - 0.00 in0.0 mm 0.00 in0.0 mm
12:20 PM 43.0°F6.1°C 21.4°F-5.9°C 42% 1.2 mph N1.9 kmh N 2.3 mph3.7 kmh 26.29 in890.3 mb - 0.00 in0.0 mm 0.00 in0.0 mm
12:25 PM 43.0°F6.1°C 22.5°F-5.3°C 44% 1.2 mph N1.9 kmh N 2.3 mph3.7 kmh 26.29 in890.3 mb - 0.00 in0.0 mm 0.00 in0.0 mm
12:30 PM 42.0°F5.6°C 21.6°F-5.8°C 44% 1.2 mph N1.9 kmh N 2.3 mph3.7 kmh 26.29 in890.3 mb - 0.00 in0.0 mm 0.00 in0.0 mm
12:35 PM 43.0°F6.1°C 20.3°F-6.5°C 40% 2.3 mph N3.7 kmh N 3.5 mph5.6 kmh 26.28 in889.9 mb - 0.00 in0.0 mm 0.00 in0.0 mm
12:40 PM 44.0°F6.7°C 19.4°F-7.0°C 37% 2.3 mph N3.7 kmh N 2.3 mph3.7 kmh 26.28 in889.9 mb - 0.00 in0.0 mm 0.00 in0.0 mm
12:45 PM 44.0°F6.7°C 19.4°F-7.0°C 37% 3.5 mph N5.6 kmh N 5.8 mph9.3 kmh 26.28 in889.9 mb - 0.00 in0.0 mm 0.00 in0.0 mm
12:50 PM 44.0°F6.7°C 18.7°F-7.4°C 36% 1.2 mph N1.9 kmh N 3.5 mph5.6 kmh 26.28 in889.9 mb - 0.00 in0.0 mm 0.00 in0.0 mm
12:55 PM 44.0°F6.7°C 18.7°F-7.4°C 36% 1.2 mph N1.9 kmh N 11.5 mph18.5 kmh 26.28 in889.9 mb - 0.00 in0.0 mm 0.00 in0.0 mm
01:00 PM 43.0°F6.1°C 19.1°F-7.2°C 38% 5.8 mph N9.3 kmh N 11.5 mph18.5 kmh 26.28 in889.9 mb - 0.00 in0.0 mm 0.00 in0.0 mm
01:10 PM 43.0°F6.1°C 19.1°F-7.2°C 38% 6.9 mph N11.1 kmh N 10.4 mph16.7 kmh 26.28 in889.9 mb - 0.00 in0.0 mm 0.00 in0.0 mm
01:15 PM 43.0°F6.1°C 19.7°F-6.8°C 39% 2.3 mph N3.7 kmh N 3.5 mph5.6 kmh 26.28 in889.9 mb - 0.00 in0.0 mm 0.00 in0.0 mm
01:20 PM 43.0°F6.1°C 19.7°F-6.8°C 39% 2.3 mph N3.7 kmh N 3.5 mph5.6 kmh 26.28 in889.9 mb - 0.00 in0.0 mm 0.00 in0.0 mm
01:25 PM 43.0°F6.1°C 19.1°F-7.2°C 38% 3.5 mph N5.6 kmh N 3.5 mph5.6 kmh 26.28 in889.9 mb - 0.00 in0.0 mm 0.00 in0.0 mm
01:30 PM 42.0°F5.6°C 17.6°F-8.0°C 37% 1.2 mph N1.9 kmh N 1.2 mph1.9 kmh 26.29 in890.3 mb - 0.00 in0.0 mm 0.00 in0.0 mm
01:35 PM 43.0°F6.1°C 20.9°F-6.2°C 41% 2.3 mph N3.7 kmh N 2.3 mph3.7 kmh 26.28 in889.9 mb - 0.00 in0.0 mm 0.00 in0.0 mm
01:40 PM 43.0°F6.1°C 19.1°F-7.2°C 38% 3.5 mph N5.6 kmh N 5.8 mph9.3 kmh 26.28 in889.9 mb - 0.00 in0.0 mm 0.00 in0.0 mm
01:45 PM 43.8°F6.6°C 19.8°F-6.8°C 38% 4.6 mph N7.4 kmh N 6.9 mph11.1 kmh 26.28 in889.9 mb - 0.00 in0.0 mm 0.00 in0.0 mm
01:50 PM 44.0°F6.7°C 20.0°F-6.7°C 38% 4.6 mph N7.4 kmh N 6.9 mph11.1 kmh 26.28 in889.9 mb - 0.00 in0.0 mm 0.00 in0.0 mm
01:55 PM 44.0°F6.7°C 20.0°F-6.7°C 38% 2.3 mph N3.7 kmh N 3.5 mph5.6 kmh 26.29 in890.3 mb - 0.00 in0.0 mm 0.00 in0.0 mm
02:00 PM 45.0°F7.2°C 20.9°F-6.2°C 38% 2.3 mph N3.7 kmh N 3.5 mph5.6 kmh 26.29 in890.3 mb - 0.00 in0.0 mm 0.00 in0.0 mm
02:10 PM 46.0°F7.8°C 21.1°F-6.1°C 37% 3.5 mph N5.6 kmh N 3.5 mph5.6 kmh 26.28 in889.9 mb - 0.00 in0.0 mm 0.00 in0.0 mm
02:15 PM 46.0°F7.8°C 21.8°F-5.7°C 38% 2.3 mph N3.7 kmh N 3.5 mph5.6 kmh 26.27 in889.6 mb - 0.00 in0.0 mm 0.00 in0.0 mm
02:20 PM 46.0°F7.8°C 21.8°F-5.7°C 38% 2.3 mph N3.7 kmh N 2.3 mph3.7 kmh 26.27 in889.6 mb - 0.00 in0.0 mm 0.00 in0.0 mm
02:25 PM 46.0°F7.8°C 21.8°F-5.7°C 38% 2.3 mph N3.7 kmh N 2.3 mph3.7 kmh 26.26 in889.3 mb - 0.00 in0.0 mm 0.00 in0.0 mm
02:30 PM 46.0°F7.8°C 19.8°F-6.8°C 35% 3.5 mph N5.6 kmh N 3.5 mph5.6 kmh 26.26 in889.3 mb - 0.00 in0.0 mm 0.00 in0.0 mm
02:35 PM 46.0°F7.8°C 19.8°F-6.8°C 35% 3.5 mph NNE5.6 kmh NNE 3.5 mph5.6 kmh 26.27 in889.6 mb - 0.00 in0.0 mm 0.00 in0.0 mm
02:40 PM 46.0°F7.8°C 19.8°F-6.8°C 35% 3.5 mph N5.6 kmh N 3.5 mph5.6 kmh 26.26 in889.3 mb - 0.00 in0.0 mm 0.00 in0.0 mm
02:45 PM 46.0°F7.8°C 19.2°F-7.1°C 34% 2.3 mph NNE3.7 kmh NNE 3.5 mph5.6 kmh 26.26 in889.3 mb - 0.00 in0.0 mm 0.00 in0.0 mm
02:50 PM 46.0°F7.8°C 17.7°F-7.9°C 32% 2.3 mph NNE3.7 kmh NNE 3.5 mph5.6 kmh 26.27 in889.6 mb - 0.00 in0.0 mm 0.00 in0.0 mm
02:55 PM 46.0°F7.8°C 19.8°F-6.8°C 35% 3.5 mph N5.6 kmh N 5.8 mph9.3 kmh 26.27 in889.6 mb - 0.00 in0.0 mm 0.00 in0.0 mm
03:00 PM 47.0°F8.3°C 21.4°F-5.9°C 36% 2.3 mph N3.7 kmh N 3.5 mph5.6 kmh 26.26 in889.3 mb - 0.00 in0.0 mm 0.00 in0.0 mm
03:10 PM 46.0°F7.8°C 18.5°F-7.5°C 33% 3.5 mph NNE5.6 kmh NNE 5.8 mph9.3 kmh 26.24 in888.6 mb - 0.00 in0.0 mm 0.00 in0.0 mm
03:15 PM 46.2°F7.9°C 18.7°F-7.4°C 33% 3.5 mph N5.6 kmh N 5.8 mph9.3 kmh 26.24 in888.6 mb - 0.00 in0.0 mm 0.00 in0.0 mm
03:20 PM 47.0°F8.3°C 20.0°F-6.7°C 34% 2.3 mph N3.7 kmh N 3.5 mph5.6 kmh 26.25 in888.9 mb - 0.00 in0.0 mm 0.00 in0.0 mm
03:25 PM 46.0°F7.8°C 19.2°F-7.1°C 34% 6.9 mph N11.1 kmh N 11.5 mph18.5 kmh 26.26 in889.3 mb - 0.00 in0.0 mm 0.00 in0.0 mm
03:30 PM 47.0°F8.3°C 19.3°F-7.1°C 33% 3.5 mph N5.6 kmh N 5.8 mph9.3 kmh 26.25 in888.9 mb - 0.00 in0.0 mm 0.00 in0.0 mm
03:35 PM 48.0°F8.9°C 19.5°F-6.9°C 32% 3.5 mph N5.6 kmh N 5.8 mph9.3 kmh 26.26 in889.3 mb - 0.00 in0.0 mm 0.00 in0.0 mm
03:40 PM 48.0°F8.9°C 20.2°F-6.6°C 33% 3.5 mph N5.6 kmh N 8.1 mph13.0 kmh 26.24 in888.6 mb - 0.00 in0.0 mm 0.00 in0.0 mm
03:45 PM 48.0°F8.9°C 20.2°F-6.6°C 33% 3.5 mph N5.6 kmh N 8.1 mph13.0 kmh 26.24 in888.6 mb - 0.00 in0.0 mm 0.00 in0.0 mm
03:50 PM 49.0°F9.4°C 19.6°F-6.9°C 31% 3.5 mph N5.6 kmh N 6.9 mph11.1 kmh 26.24 in888.6 mb - 0.00 in0.0 mm 0.00 in0.0 mm
03:55 PM 49.0°F9.4°C 20.4°F-6.4°C 32% 2.3 mph N3.7 kmh N 3.5 mph5.6 kmh 26.25 in888.9 mb - 0.00 in0.0 mm 0.00 in0.0 mm
04:00 PM 48.0°F8.9°C 21.6°F-5.8°C 35% 1.2 mph N1.9 kmh N 1.2 mph1.9 kmh 26.24 in888.6 mb - 0.00 in0.0 mm 0.00 in0.0 mm
04:10 PM 48.0°F8.9°C 20.9°F-6.2°C 34% 2.3 mph N3.7 kmh N 3.5 mph5.6 kmh 26.24 in888.6 mb - 0.00 in0.0 mm 0.00 in0.0 mm
04:15 PM 48.0°F8.9°C 20.2°F-6.6°C 33% 2.3 mph N3.7 kmh N 3.5 mph5.6 kmh 26.24 in888.6 mb - 0.00 in0.0 mm 0.00 in0.0 mm
04:20 PM 48.0°F8.9°C 20.2°F-6.6°C 33% 2.3 mph NNW3.7 kmh NNW 3.5 mph5.6 kmh 26.24 in888.6 mb - 0.00 in0.0 mm 0.00 in0.0 mm
04:25 PM 47.0°F8.3°C 18.6°F-7.4°C 32% 6.9 mph WNW11.1 kmh WNW 11.5 mph18.5 kmh 26.25 in888.9 mb - 0.00 in0.0 mm 0.00 in0.0 mm
04:30 PM 47.0°F8.3°C 20.7°F-6.3°C 35% 3.5 mph NNW5.6 kmh NNW 3.5 mph5.6 kmh 26.26 in889.3 mb - 0.00 in0.0 mm 0.00 in0.0 mm
04:35 PM 47.0°F8.3°C 20.0°F-6.7°C 34% 3.5 mph NNW5.6 kmh NNW 5.8 mph9.3 kmh 26.25 in888.9 mb - 0.00 in0.0 mm 0.00 in0.0 mm
04:40 PM 47.0°F8.3°C 20.0°F-6.7°C 34% 3.5 mph NNW5.6 kmh NNW 5.8 mph9.3 kmh 26.25 in888.9 mb - 0.00 in0.0 mm 0.00 in0.0 mm
04:45 PM 46.0°F7.8°C 19.8°F-6.8°C 35% 3.5 mph NNE5.6 kmh NNE 6.9 mph11.1 kmh 26.25 in888.9 mb - 0.00 in0.0 mm 0.00 in0.0 mm
04:50 PM 46.0°F7.8°C 19.2°F-7.1°C 34% 3.5 mph N5.6 kmh N 6.9 mph11.1 kmh 26.26 in889.3 mb - 0.00 in0.0 mm 0.00 in0.0 mm
04:55 PM 47.0°F8.3°C 20.0°F-6.7°C 34% 5.8 mph N9.3 kmh N 8.1 mph13.0 kmh 26.28 in889.9 mb - 0.00 in0.0 mm 0.00 in0.0 mm
05:00 PM 47.5°F8.6°C 20.5°F-6.4°C 34% 4.6 mph NNE7.4 kmh NNE 8.1 mph13.0 kmh 26.28 in889.9 mb - 0.00 in0.0 mm 0.00 in0.0 mm
05:10 PM 47.0°F8.3°C 19.3°F-7.1°C 33% 2.3 mph N3.7 kmh N 5.8 mph9.3 kmh 26.28 in889.9 mb - 0.00 in0.0 mm 0.00 in0.0 mm
05:15 PM 46.0°F7.8°C 18.5°F-7.5°C 33% 4.6 mph N7.4 kmh N 6.9 mph11.1 kmh 26.28 in889.9 mb - 0.00 in0.0 mm 0.00 in0.0 mm
05:20 PM 45.0°F7.2°C 20.3°F-6.5°C 37% 1.2 mph N1.9 kmh N 2.3 mph3.7 kmh 26.28 in889.9 mb - 0.00 in0.0 mm 0.00 in0.0 mm
05:25 PM 44.6°F7.0°C 19.9°F-6.7°C 37% 3.5 mph NNE5.6 kmh NNE 8.1 mph13.0 kmh 26.28 in889.9 mb - 0.00 in0.0 mm 0.00 in0.0 mm
05:30 PM 44.0°F6.7°C 18.7°F-7.4°C 36% 6.9 mph NNE11.1 kmh NNE 8.1 mph13.0 kmh 26.28 in889.9 mb - 0.00 in0.0 mm 0.00 in0.0 mm
05:35 PM 44.0°F6.7°C 18.7°F-7.4°C 36% 4.6 mph N7.4 kmh N 10.4 mph16.7 kmh 26.28 in889.9 mb - 0.00 in0.0 mm 0.00 in0.0 mm
05:40 PM 44.0°F6.7°C 18.7°F-7.4°C 36% 2.3 mph N3.7 kmh N 3.5 mph5.6 kmh 26.31 in891.0 mb - 0.00 in0.0 mm 0.00 in0.0 mm
05:45 PM 44.0°F6.7°C 19.4°F-7.0°C 37% 3.5 mph N5.6 kmh N 3.5 mph5.6 kmh 26.31 in891.0 mb - 0.00 in0.0 mm 0.00 in0.0 mm
05:50 PM 44.0°F6.7°C 19.4°F-7.0°C 37% 2.3 mph N3.7 kmh N 3.5 mph5.6 kmh 26.32 in891.3 mb - 0.00 in0.0 mm 0.00 in0.0 mm
05:55 PM 44.0°F6.7°C 18.7°F-7.4°C 36% 2.3 mph N3.7 kmh N 3.5 mph5.6 kmh 26.32 in891.3 mb - 0.00 in0.0 mm 0.00 in0.0 mm
06:00 PM 44.0°F6.7°C 19.4°F-7.0°C 37% 2.3 mph N3.7 kmh N 3.5 mph5.6 kmh 26.32 in891.3 mb - 0.00 in0.0 mm 0.00 in0.0 mm
06:10 PM 42.0°F5.6°C 18.8°F-7.3°C 39% 2.3 mph N3.7 kmh N 3.5 mph5.6 kmh 26.33 in891.6 mb - 0.00 in0.0 mm 0.00 in0.0 mm
06:15 PM 42.0°F5.6°C 18.8°F-7.3°C 39% 2.3 mph N3.7 kmh N 3.5 mph5.6 kmh 26.33 in891.6 mb - 0.00 in0.0 mm 0.00 in0.0 mm
06:20 PM 42.0°F5.6°C 18.8°F-7.3°C 39% 2.3 mph N3.7 kmh N 3.5 mph5.6 kmh 26.33 in891.6 mb - 0.00 in0.0 mm 0.00 in0.0 mm
06:25 PM 41.0°F5.0°C 17.9°F-7.8°C 39% 2.3 mph N3.7 kmh N 5.8 mph9.3 kmh 26.34 in892.0 mb - 0.00 in0.0 mm 0.00 in0.0 mm
06:30 PM 42.0°F5.6°C 18.2°F-7.7°C 38% 3.5 mph N5.6 kmh N 5.8 mph9.3 kmh 26.33 in891.6 mb - 0.00 in0.0 mm 0.00 in0.0 mm
06:35 PM 41.0°F5.0°C 17.3°F-8.2°C 38% 2.3 mph N3.7 kmh N 3.5 mph5.6 kmh 26.34 in892.0 mb - 0.00 in0.0 mm 0.00 in0.0 mm
06:40 PM 41.0°F5.0°C 17.3°F-8.2°C 38% 2.3 mph N3.7 kmh N 3.5 mph5.6 kmh 26.34 in892.0 mb - 0.00 in0.0 mm 0.00 in0.0 mm
06:45 PM 41.0°F5.0°C 17.3°F-8.2°C 38% 2.3 mph N3.7 kmh N 3.5 mph5.6 kmh 26.34 in892.0 mb - 0.00 in0.0 mm 0.00 in0.0 mm
06:50 PM 41.0°F5.0°C 17.3°F-8.2°C 38% 2.3 mph N3.7 kmh N 3.5 mph5.6 kmh 26.35 in892.3 mb - 0.00 in0.0 mm 0.00 in0.0 mm
06:55 PM 41.0°F5.0°C 16.7°F-8.5°C 37% 3.5 mph N5.6 kmh N 6.9 mph11.1 kmh 26.34 in892.0 mb - 0.00 in0.0 mm 0.00 in0.0 mm
07:00 PM 41.0°F5.0°C 17.3°F-8.2°C 38% 2.3 mph N3.7 kmh N 2.3 mph3.7 kmh 26.35 in892.3 mb - 0.00 in0.0 mm 0.00 in0.0 mm
07:10 PM 41.0°F5.0°C 18.5°F-7.5°C 40% 3.5 mph NNE5.6 kmh NNE 5.8 mph9.3 kmh 26.35 in892.3 mb - 0.00 in0.0 mm 0.00 in0.0 mm
07:15 PM 41.0°F5.0°C 17.3°F-8.2°C 38% 1.2 mph N1.9 kmh N 1.2 mph1.9 kmh 26.36 in892.7 mb - 0.00 in0.0 mm 0.00 in0.0 mm
07:20 PM 40.0°F4.4°C 14.5°F-9.7°C 35% 4.6 mph N7.4 kmh N 8.1 mph13.0 kmh 26.36 in892.7 mb - 0.00 in0.0 mm 0.00 in0.0 mm
07:25 PM 40.0°F4.4°C 15.8°F-9.0°C 37% 2.3 mph N3.7 kmh N 3.5 mph5.6 kmh 26.35 in892.3 mb - 0.00 in0.0 mm 0.00 in0.0 mm
07:30 PM 40.0°F4.4°C 15.2°F-9.3°C 36% 2.3 mph N3.7 kmh N 3.5 mph5.6 kmh 26.35 in892.3 mb - 0.00 in0.0 mm 0.00 in0.0 mm
07:35 PM 40.0°F4.4°C 15.2°F-9.3°C 36% 3.5 mph N5.6 kmh N 3.5 mph5.6 kmh 26.35 in892.3 mb - 0.00 in0.0 mm 0.00 in0.0 mm
07:40 PM 40.0°F4.4°C 15.8°F-9.0°C 37% 3.5 mph N5.6 kmh N 3.5 mph5.6 kmh 26.36 in892.7 mb - 0.00 in0.0 mm 0.00 in0.0 mm
07:45 PM 40.0°F4.4°C 15.8°F-9.0°C 37% 3.5 mph N5.6 kmh N 5.8 mph9.3 kmh 26.36 in892.7 mb - 0.00 in0.0 mm 0.00 in0.0 mm
07:50 PM 40.0°F4.4°C 15.2°F-9.3°C 36% 2.3 mph NW3.7 kmh NW 3.5 mph5.6 kmh 26.36 in892.7 mb - 0.00 in0.0 mm 0.00 in0.0 mm
07:55 PM 40.0°F4.4°C 15.2°F-9.3°C 36% 3.5 mph N5.6 kmh N 3.5 mph5.6 kmh 26.36 in892.7 mb - 0.00 in0.0 mm 0.00 in0.0 mm
08:00 PM 40.0°F4.4°C 15.2°F-9.3°C 36% 2.3 mph N3.7 kmh N 3.5 mph5.6 kmh 26.36 in892.7 mb - 0.00 in0.0 mm 0.00 in0.0 mm
08:10 PM 40.0°F4.4°C 15.8°F-9.0°C 37% 1.2 mph N1.9 kmh N 1.2 mph1.9 kmh 26.37 in893.0 mb - 0.00 in0.0 mm 0.00 in0.0 mm
08:15 PM 40.0°F4.4°C 15.8°F-9.0°C 37% 1.2 mph N1.9 kmh N 2.3 mph3.7 kmh 26.36 in892.7 mb - 0.00 in0.0 mm 0.00 in0.0 mm
08:20 PM 40.0°F4.4°C 15.2°F-9.3°C 36% 2.3 mph N3.7 kmh N 3.5 mph5.6 kmh 26.37 in893.0 mb - 0.00 in0.0 mm 0.00 in0.0 mm
08:25 PM 40.0°F4.4°C 16.4°F-8.7°C 38% 2.3 mph NNE3.7 kmh NNE 3.5 mph5.6 kmh 26.37 in893.0 mb - 0.00 in0.0 mm 0.00 in0.0 mm
08:30 PM 40.0°F4.4°C 15.8°F-9.0°C 37% 2.3 mph N3.7 kmh N 3.5 mph5.6 kmh 26.38 in893.3 mb - 0.00 in0.0 mm 0.00 in0.0 mm
08:35 PM 40.0°F4.4°C 15.2°F-9.3°C 36% 2.3 mph N3.7 kmh N 3.5 mph5.6 kmh 26.38 in893.3 mb - 0.00 in0.0 mm 0.00 in0.0 mm
08:40 PM 40.0°F4.4°C 15.8°F-9.0°C 37% 1.2 mph N1.9 kmh N 1.2 mph1.9 kmh 26.38 in893.3 mb - 0.00 in0.0 mm 0.00 in0.0 mm
08:45 PM 40.0°F4.4°C 15.8°F-9.0°C 37% Calm Calm 1.2 mph1.9 kmh 26.38 in893.3 mb - 0.00 in0.0 mm 0.00 in0.0 mm
08:50 PM 40.0°F4.4°C 15.2°F-9.3°C 36% 3.5 mph NE5.6 kmh NE 5.8 mph9.3 kmh 26.39 in893.7 mb - 0.00 in0.0 mm 0.00 in0.0 mm
08:55 PM 40.0°F4.4°C 15.8°F-9.0°C 37% 1.2 mph N1.9 kmh N 1.2 mph1.9 kmh 26.38 in893.3 mb - 0.00 in0.0 mm 0.00 in0.0 mm
09:00 PM 40.0°F4.4°C 16.4°F-8.7°C 38% 1.2 mph N1.9 kmh N 1.2 mph1.9 kmh 26.39 in893.7 mb - 0.00 in0.0 mm 0.00 in0.0 mm
09:10 PM 40.0°F4.4°C 14.5°F-9.7°C 35% 3.5 mph NNE5.6 kmh NNE 3.5 mph5.6 kmh 26.39 in893.7 mb - 0.00 in0.0 mm 0.00 in0.0 mm
09:15 PM 40.0°F4.4°C 14.5°F-9.7°C 35% 2.3 mph N3.7 kmh N 3.5 mph5.6 kmh 26.39 in893.7 mb - 0.00 in0.0 mm 0.00 in0.0 mm
09:20 PM 40.0°F4.4°C 15.2°F-9.3°C 36% 1.2 mph N1.9 kmh N 1.2 mph1.9 kmh 26.39 in893.7 mb - 0.00 in0.0 mm 0.00 in0.0 mm
09:25 PM 40.0°F4.4°C 14.5°F-9.7°C 35% 1.2 mph N1.9 kmh N 2.3 mph3.7 kmh 26.39 in893.7 mb - 0.00 in0.0 mm 0.00 in0.0 mm
09:30 PM 40.0°F4.4°C 15.8°F-9.0°C 37% 1.2 mph N1.9 kmh N 1.2 mph1.9 kmh 26.39 in893.7 mb - 0.00 in0.0 mm 0.00 in0.0 mm
09:35 PM 40.0°F4.4°C 15.2°F-9.3°C 36% 1.2 mph N1.9 kmh N 3.5 mph5.6 kmh 26.40 in894.0 mb - 0.00 in0.0 mm 0.00 in0.0 mm
09:40 PM 40.0°F4.4°C 15.2°F-9.3°C 36% 2.3 mph N3.7 kmh N 3.5 mph5.6 kmh 26.40 in894.0 mb - 0.00 in0.0 mm 0.00 in0.0 mm
09:45 PM 40.0°F4.4°C 15.2°F-9.3°C 36% 2.3 mph N3.7 kmh N 3.5 mph5.6 kmh 26.39 in893.7 mb - 0.00 in0.0 mm 0.00 in0.0 mm
09:50 PM 40.0°F4.4°C 15.2°F-9.3°C 36% 2.3 mph N3.7 kmh N 2.3 mph3.7 kmh 26.39 in893.7 mb - 0.00 in0.0 mm 0.00 in0.0 mm
09:55 PM 40.0°F4.4°C 16.4°F-8.7°C 38% 1.2 mph N1.9 kmh N 2.3 mph3.7 kmh 26.40 in894.0 mb - 0.00 in0.0 mm 0.00 in0.0 mm
10:00 PM 40.0°F4.4°C 15.2°F-9.3°C 36% 3.5 mph N5.6 kmh N 3.5 mph5.6 kmh 26.39 in893.7 mb - 0.00 in0.0 mm 0.00 in0.0 mm
10:10 PM 40.0°F4.4°C 15.2°F-9.3°C 36% Calm Calm 3.5 mph5.6 kmh 26.39 in893.7 mb - 0.00 in0.0 mm 0.00 in0.0 mm
10:15 PM 40.0°F4.4°C 15.2°F-9.3°C 36% 2.3 mph N3.7 kmh N 3.5 mph5.6 kmh 26.39 in893.7 mb - 0.00 in0.0 mm 0.00 in0.0 mm
10:20 PM 40.0°F4.4°C 14.5°F-9.7°C 35% 2.3 mph NW3.7 kmh NW 3.5 mph5.6 kmh 26.41 in894.3 mb - 0.00 in0.0 mm 0.00 in0.0 mm
10:25 PM 40.0°F4.4°C 15.2°F-9.3°C 36% 2.3 mph N3.7 kmh N 3.5 mph5.6 kmh 26.40 in894.0 mb - 0.00 in0.0 mm 0.00 in0.0 mm
10:30 PM 40.0°F4.4°C 15.2°F-9.3°C 36% 3.5 mph N5.6 kmh N 8.1 mph13.0 kmh 26.40 in894.0 mb - 0.00 in0.0 mm 0.00 in0.0 mm
10:35 PM 40.0°F4.4°C 14.5°F-9.7°C 35% 6.9 mph NNE11.1 kmh NNE 9.2 mph14.8 kmh 26.41 in894.3 mb - 0.00 in0.0 mm 0.00 in0.0 mm
10:40 PM 40.0°F4.4°C 15.2°F-9.3°C 36% 2.3 mph N3.7 kmh N 9.2 mph14.8 kmh 26.41 in894.3 mb - 0.00 in0.0 mm 0.00 in0.0 mm
10:45 PM 40.0°F4.4°C 15.2°F-9.3°C 36% 1.2 mph N1.9 kmh N 2.3 mph3.7 kmh 26.41 in894.3 mb - 0.00 in0.0 mm 0.00 in0.0 mm
10:50 PM 40.0°F4.4°C 15.2°F-9.3°C 36% Calm Calm 1.2 mph1.9 kmh 26.40 in894.0 mb - 0.00 in0.0 mm 0.00 in0.0 mm
10:55 PM 40.0°F4.4°C 15.8°F-9.0°C 37% 2.3 mph N3.7 kmh N 3.5 mph5.6 kmh 26.40 in894.0 mb - 0.00 in0.0 mm 0.00 in0.0 mm
11:00 PM 40.0°F4.4°C 15.2°F-9.3°C 36% 2.3 mph N3.7 kmh N 3.5 mph5.6 kmh 26.39 in893.7 mb - 0.00 in0.0 mm 0.00 in0.0 mm
11:10 PM 40.0°F4.4°C 15.8°F-9.0°C 37% 1.2 mph N1.9 kmh N 1.2 mph1.9 kmh 26.40 in894.0 mb - 0.00 in0.0 mm 0.00 in0.0 mm
11:15 PM 40.0°F4.4°C 15.8°F-9.0°C 37% 1.2 mph N1.9 kmh N 2.3 mph3.7 kmh 26.40 in894.0 mb - 0.00 in0.0 mm 0.00 in0.0 mm
11:20 PM 40.0°F4.4°C 15.8°F-9.0°C 37% 1.2 mph N1.9 kmh N 2.3 mph3.7 kmh 26.40 in894.0 mb - 0.00 in0.0 mm 0.00 in0.0 mm
11:25 PM 40.0°F4.4°C 14.5°F-9.7°C 35% 2.3 mph N3.7 kmh N 3.5 mph5.6 kmh 26.40 in894.0 mb - 0.00 in0.0 mm 0.00 in0.0 mm
11:30 PM 40.0°F4.4°C 15.2°F-9.3°C 36% 1.2 mph N1.9 kmh N 2.3 mph3.7 kmh 26.40 in894.0 mb - 0.00 in0.0 mm 0.00 in0.0 mm
11:35 PM 40.0°F4.4°C 14.5°F-9.7°C 35% 2.3 mph N3.7 kmh N 3.5 mph5.6 kmh 26.40 in894.0 mb - 0.00 in0.0 mm 0.00 in0.0 mm
11:40 PM 40.0°F4.4°C 13.8°F-10.1°C 34% 2.3 mph N3.7 kmh N 2.3 mph3.7 kmh 26.40 in894.0 mb - 0.00 in0.0 mm 0.00 in0.0 mm
11:45 PM 40.0°F4.4°C 14.5°F-9.7°C 35% 3.5 mph N5.6 kmh N 3.5 mph5.6 kmh 26.40 in894.0 mb - 0.00 in0.0 mm 0.00 in0.0 mm
11:50 PM 40.0°F4.4°C 15.2°F-9.3°C 36% 3.5 mph N5.6 kmh N 3.5 mph5.6 kmh 26.40 in894.0 mb - 0.00 in0.0 mm 0.00 in0.0 mm
11:55 PM 40.0°F4.4°C 15.2°F-9.3°C 36% 2.3 mph N3.7 kmh N 3.5 mph5.6 kmh 26.39 in893.7 mb - 0.00 in0.0 mm 0.00 in0.0 mm